Time;durP1;ratioP1;P1;durP2;ratioP2;P2;SDS_P1;SDS_P2;PMS_P1;PMS_P2;Temp;Humidity;BMP_temperature;BMP_pressure;BME280_temperature;BME280_humidity;BME280_pressure;Samples;Min_cycle;Max_cycle;Signal;HPM_P1;HPM_P2
2023/05/30 00:01:19;;;;;;;3.10;2.00;;;;;;;;;;5012867;28;20428;-44
2023/05/30 00:03:46;;;;;;;5.13;2.20;;;;;;;;;;5014140;28;20483;-45
2023/05/30 00:06:13;;;;;;;12.80;2.40;;;;;;;;;;5014564;28;20508;-44
2023/05/30 00:08:39;;;;;;;5.60;1.80;;;;;;;;;;5014975;28;20418;-43
2023/05/30 00:11:06;;;;;;;5.17;2.50;;;;;;;;;;5014810;28;20474;-44
2023/05/30 00:13:32;;;;;;;7.43;2.50;;;;;;;;;;5012619;28;21852;-43
2023/05/30 00:15:58;;;;;;;5.53;2.07;;;;;;;;;;5015941;28;20426;-45
2023/05/30 00:18:25;;;;;;;6.70;2.57;;;;;;;;;;5014634;28;20405;-44
2023/05/30 00:20:51;;;;;;;10.03;2.77;;;;;;;;;;5014773;28;20978;-43
2023/05/30 00:23:17;;;;;;;5.83;1.90;;;;;;;;;;5014404;28;20807;-44
2023/05/30 00:25:45;;;;;;;8.37;2.37;;;;;;;;;;5014573;28;20424;-44
2023/05/30 00:28:11;;;;;;;7.43;2.60;;;;;;;;;;5014318;28;20531;-44
2023/05/30 00:30:37;;;;;;;6.57;2.27;;;;;;;;;;5012178;28;20481;-44
2023/05/30 00:33:04;;;;;;;5.80;2.10;;;;;;;;;;5005142;28;20442;-44
2023/05/30 00:35:30;;;;;;;6.93;2.53;;;;;;;;;;5013431;28;20477;-44
2023/05/30 00:37:56;;;;;;;4.70;2.07;;;;;;;;;;5014152;28;20498;-46
2023/05/30 00:40:22;;;;;;;11.03;2.17;;;;;;;;;;5014156;28;20420;-43
2023/05/30 00:42:48;;;;;;;11.17;2.13;;;;;;;;;;5013860;28;20495;-44
2023/05/30 00:45:13;;;;;;;7.23;2.00;;;;;;;;;;5013865;28;20435;-43
2023/05/30 00:47:40;;;;;;;9.97;2.53;;;;;;;;;;5013899;28;20562;-43
2023/05/30 00:50:07;;;;;;;5.80;2.60;;;;;;;;;;5013887;28;20451;-44
2023/05/30 00:52:33;;;;;;;9.87;2.77;;;;;;;;;;5012456;28;20917;-45
2023/05/30 00:55:02;;;;;;;7.90;2.77;;;;;;;;;;5013325;28;20557;-43
2023/05/30 00:57:28;;;;;;;10.60;2.87;;;;;;;;;;5019515;28;20436;-44
2023/05/30 00:59:54;;;;;;;4.03;2.40;;;;;;;;;;5013587;28;20412;-43
2023/05/30 01:02:20;;;;;;;4.23;1.87;;;;;;;;;;5012052;28;20769;-44
2023/05/30 01:04:48;;;;;;;9.93;2.40;;;;;;;;;;5013171;28;20418;-43
2023/05/30 01:07:14;;;;;;;6.97;2.23;;;;;;;;;;5013621;28;20415;-43
2023/05/30 01:09:40;;;;;;;3.73;2.37;;;;;;;;;;5013641;28;20417;-44
2023/05/30 01:12:23;;;;;;;6.40;2.40;;;;;;;;;;5012722;28;20929;-45
2023/05/30 01:14:58;;;;;;;7.70;2.00;;;;;;;;;;5013323;28;20993;-43
2023/05/30 01:17:27;;;;;;;3.70;2.43;;;;;;;;;;5013450;28;20410;-43
2023/05/30 01:20:07;;;;;;;9.00;2.60;;;;;;;;;;5013197;28;20414;-44
2023/05/30 01:22:52;;;;;;;6.03;2.53;;;;;;;;;;5013153;28;20552;-43
2023/05/30 01:25:38;;;;;;;9.30;3.33;;;;;;;;;;5006481;28;20919;-44
2023/05/30 01:28:07;;;;;;;11.40;2.73;;;;;;;;;;5011285;28;20416;-44
2023/05/30 01:30:35;;;;;;;7.20;2.43;;;;;;;;;;5013334;28;20425;-45
2023/05/30 01:33:01;;;;;;;6.93;3.23;;;;;;;;;;5010366;28;20450;-44
2023/05/30 01:35:27;;;;;;;12.40;2.70;;;;;;;;;;5012406;28;20824;-43
2023/05/30 01:37:53;;;;;;;6.17;2.10;;;;;;;;;;5013088;28;20430;-43
2023/05/30 01:40:21;;;;;;;5.57;2.10;;;;;;;;;;5012947;28;20419;-43
2023/05/30 01:42:49;;;;;;;8.70;2.20;;;;;;;;;;5012730;28;20434;-43
2023/05/30 01:45:18;;;;;;;7.70;2.20;;;;;;;;;;5012717;28;20432;-44
2023/05/30 01:48:05;;;;;;;6.53;2.13;;;;;;;;;;5012798;28;20498;-46
2023/05/30 01:50:37;;;;;;;20.20;4.20;;;;;;;;;;5007557;28;20895;-45
2023/05/30 01:53:06;;;;;;;4.53;2.10;;;;;;;;;;5012555;28;20459;-45
2023/05/30 01:55:33;;;;;;;5.70;2.50;;;;;;;;;;5018135;28;20459;-44
2023/05/30 01:57:59;;;;;;;6.87;2.40;;;;;;;;;;5014089;28;20422;-43
2023/05/30 02:00:25;;;;;;;6.70;2.60;;;;;;;;;;5012534;28;20498;-46
2023/05/30 02:02:51;;;;;;;2.43;1.90;;;;;;;;;;5011477;28;20542;-44
2023/05/30 02:05:17;;;;;;;5.27;2.20;;;;;;;;;;5011905;28;20439;-44
2023/05/30 02:07:43;;;;;;;13.10;3.07;;;;;;;;;;5012644;28;20482;-44
2023/05/30 02:10:10;;;;;;;5.30;2.30;;;;;;;;;;5013030;28;20409;-43
2023/05/30 02:12:35;;;;;;;11.37;2.70;;;;;;;;;;5012203;28;20458;-44
2023/05/30 02:15:01;;;;;;;7.67;2.40;;;;;;;;;;5012189;28;20490;-43
2023/05/30 02:17:27;;;;;;;5.43;2.73;;;;;;;;;;5012383;28;20409;-43
2023/05/30 02:19:53;;;;;;;5.07;2.40;;;;;;;;;;5012274;28;20465;-43
2023/05/30 02:22:20;;;;;;;5.80;2.17;;;;;;;;;;5012158;28;20930;-43
2023/05/30 02:24:46;;;;;;;5.07;2.30;;;;;;;;;;5012343;28;20862;-44
2023/05/30 02:27:12;;;;;;;7.73;2.60;;;;;;;;;;5012214;28;20403;-44
2023/05/30 02:29:37;;;;;;;9.97;2.40;;;;;;;;;;5012309;28;20919;-44
2023/05/30 02:32:04;;;;;;;10.13;3.00;;;;;;;;;;5010221;28;20945;-44
2023/05/30 02:34:29;;;;;;;10.47;2.67;;;;;;;;;;5010405;28;20846;-46
2023/05/30 02:36:57;;;;;;;11.83;2.20;;;;;;;;;;5016882;28;20510;-45
2023/05/30 02:39:22;;;;;;;15.43;2.60;;;;;;;;;;5012472;28;20419;-44
2023/05/30 02:41:48;;;;;;;8.23;2.93;;;;;;;;;;5017231;28;20954;-45
2023/05/30 02:44:15;;;;;;;5.93;2.37;;;;;;;;;;5012213;28;20451;-45
2023/05/30 02:46:41;;;;;;;17.57;3.03;;;;;;;;;;5008580;28;20510;-45
2023/05/30 02:49:08;;;;;;;11.13;3.43;;;;;;;;;;5012808;28;20468;-46
2023/05/30 02:51:35;;;;;;;11.40;3.50;;;;;;;;;;5012498;28;20503;-46
2023/05/30 02:54:01;;;;;;;15.60;3.07;;;;;;;;;;5012097;28;20890;-46
2023/05/30 02:56:28;;;;;;;10.23;3.67;;;;;;;;;;5012788;28;20446;-46
2023/05/30 02:58:54;;;;;;;10.40;2.90;;;;;;;;;;5011877;28;20483;-45
2023/05/30 03:01:20;;;;;;;7.93;3.67;;;;;;;;;;5012305;28;20502;-45
2023/05/30 03:03:47;;;;;;;6.20;2.50;;;;;;;;;;5012860;28;20864;-46
2023/05/30 03:06:14;;;;;;;14.03;3.50;;;;;;;;;;5013724;28;20453;-46
2023/05/30 03:08:42;;;;;;;12.20;3.90;;;;;;;;;;5012773;28;20407;-45
2023/05/30 03:11:10;;;;;;;6.23;3.27;;;;;;;;;;5012775;28;20497;-45
2023/05/30 03:13:36;;;;;;;12.30;3.50;;;;;;;;;;5012381;28;20433;-47
2023/05/30 03:16:02;;;;;;;16.03;3.20;;;;;;;;;;5012789;28;20411;-46
2023/05/30 03:18:28;;;;;;;16.20;4.77;;;;;;;;;;5013001;28;20438;-45
2023/05/30 03:20:55;;;;;;;8.37;3.23;;;;;;;;;;5012697;28;20896;-46
2023/05/30 03:23:21;;;;;;;13.97;3.90;;;;;;;;;;5012768;28;20489;-47
2023/05/30 03:25:46;;;;;;;13.30;4.60;;;;;;;;;;5012951;28;20419;-46
2023/05/30 03:28:12;;;;;;;14.00;4.70;;;;;;;;;;5012806;28;20483;-46
2023/05/30 03:30:38;;;;;;;14.10;4.57;;;;;;;;;;5012772;28;20423;-46
2023/05/30 03:33:05;;;;;;;10.23;5.10;;;;;;;;;;5011401;28;20885;-46
2023/05/30 03:35:31;;;;;;;24.80;6.07;;;;;;;;;;5016028;28;20555;-45
2023/05/30 03:37:57;;;;;;;16.70;6.67;;;;;;;;;;5016062;28;20410;-46
2023/05/30 03:40:24;;;;;;;9.03;5.40;;;;;;;;;;5016852;28;20408;-47
2023/05/30 03:42:50;;;;;;;11.90;6.80;;;;;;;;;;5016207;28;20419;-47
2023/05/30 03:45:16;;;;;;;14.40;6.60;;;;;;;;;;5016414;28;20419;-46
2023/05/30 03:47:42;;;;;;;15.57;8.20;;;;;;;;;;5016100;28;20752;-46
2023/05/30 03:50:08;;;;;;;12.63;7.20;;;;;;;;;;5015813;28;20511;-46
2023/05/30 03:52:34;;;;;;;21.00;8.53;;;;;;;;;;5015703;28;20407;-46
2023/05/30 03:55:00;;;;;;;23.37;9.50;;;;;;;;;;5016913;28;20606;-46
2023/05/30 03:57:26;;;;;;;20.77;8.10;;;;;;;;;;5021966;28;20419;-45
2023/05/30 03:59:52;;;;;;;16.53;7.60;;;;;;;;;;5015601;28;20414;-46
2023/05/30 04:02:18;;;;;;;14.90;8.07;;;;;;;;;;5013635;28;20434;-46
2023/05/30 04:04:44;;;;;;;12.53;6.77;;;;;;;;;;5012064;28;20429;-46
2023/05/30 04:07:10;;;;;;;10.97;7.43;;;;;;;;;;5015551;28;20420;-47
2023/05/30 04:09:35;;;;;;;10.73;7.20;;;;;;;;;;5015440;28;20419;-45
2023/05/30 04:12:01;;;;;;;18.17;9.50;;;;;;;;;;5015211;28;20450;-45
2023/05/30 04:14:27;;;;;;;15.77;9.80;;;;;;;;;;5015638;28;20464;-47
2023/05/30 04:16:53;;;;;;;16.17;8.93;;;;;;;;;;5015341;28;20830;-45
2023/05/30 04:19:19;;;;;;;13.73;7.20;;;;;;;;;;5015708;28;20855;-45
2023/05/30 04:21:45;;;;;;;9.87;7.03;;;;;;;;;;5015503;28;20403;-45
2023/05/30 04:24:12;;;;;;;16.43;7.80;;;;;;;;;;5015325;28;20932;-46
2023/05/30 04:26:38;;;;;;;15.43;8.73;;;;;;;;;;5015924;28;20412;-46
2023/05/30 04:29:04;;;;;;;12.10;6.70;;;;;;;;;;5015611;28;20532;-45
2023/05/30 04:31:30;;;;;;;20.90;8.90;;;;;;;;;;5013478;28;20566;-47
2023/05/30 04:33:56;;;;;;;21.73;8.67;;;;;;;;;;5014773;28;21002;-45
2023/05/30 04:36:23;;;;;;;17.57;8.50;;;;;;;;;;5015530;28;20434;-45
2023/05/30 04:38:49;;;;;;;15.40;8.93;;;;;;;;;;5015084;28;20417;-46
2023/05/30 04:41:20;;;;;;;14.50;8.10;;;;;;;;;;5015399;28;20884;-46
2023/05/30 04:43:54;;;;;;;17.43;8.53;;;;;;;;;;5015102;28;20930;-46
2023/05/30 04:46:21;;;;;;;16.57;8.73;;;;;;;;;;5013934;28;20432;-45
2023/05/30 04:48:52;;;;;;;25.90;9.67;;;;;;;;;;5015325;28;20464;-48
2023/05/30 04:51:18;;;;;;;17.63;7.73;;;;;;;;;;5015536;28;20415;-46
2023/05/30 04:53:44;;;;;;;18.93;8.80;;;;;;;;;;5015090;28;20471;-45
2023/05/30 04:56:10;;;;;;;21.00;8.67;;;;;;;;;;5020203;28;20415;-47
2023/05/30 04:58:36;;;;;;;16.10;8.47;;;;;;;;;;5015069;28;20435;-45
2023/05/30 05:01:02;;;;;;;14.30;8.47;;;;;;;;;;5014270;28;20411;-44
2023/05/30 05:03:28;;;;;;;26.20;8.90;;;;;;;;;;5014159;28;20444;-46
2023/05/30 05:05:55;;;;;;;20.40;8.90;;;;;;;;;;5014433;28;20440;-45
2023/05/30 05:08:20;;;;;;;14.87;8.50;;;;;;;;;;5015004;28;20892;-45
2023/05/30 05:10:46;;;;;;;15.30;8.73;;;;;;;;;;5014992;28;20407;-46
2023/05/30 05:13:12;;;;;;;21.23;8.90;;;;;;;;;;5015694;28;20435;-47
2023/05/30 05:15:38;;;;;;;22.20;8.50;;;;;;;;;;5014811;28;20470;-45
2023/05/30 05:18:04;;;;;;;20.10;8.60;;;;;;;;;;5014591;28;20407;-46
2023/05/30 05:20:30;;;;;;;15.93;7.30;;;;;;;;;;5014593;28;20411;-46
2023/05/30 05:22:56;;;;;;;17.97;7.57;;;;;;;;;;5014740;28;20470;-45
2023/05/30 05:25:22;;;;;;;15.93;7.60;;;;;;;;;;5014976;28;20421;-47
2023/05/30 05:27:48;;;;;;;19.40;8.40;;;;;;;;;;5014707;28;20459;-46
2023/05/30 05:30:15;;;;;;;11.97;6.90;;;;;;;;;;5014792;28;20424;-46
2023/05/30 05:32:41;;;;;;;12.83;7.30;;;;;;;;;;5013230;28;20486;-46
2023/05/30 05:35:08;;;;;;;17.40;6.60;;;;;;;;;;5014405;28;20472;-45
2023/05/30 05:37:35;;;;;;;15.83;6.50;;;;;;;;;;5014665;28;20782;-46
2023/05/30 05:40:04;;;;;;;13.97;7.00;;;;;;;;;;5014654;28;20404;-45
2023/05/30 05:42:30;;;;;;;16.17;7.73;;;;;;;;;;5014276;28;20553;-47
2023/05/30 05:44:56;;;;;;;14.70;7.23;;;;;;;;;;5014242;28;20420;-45
2023/05/30 05:47:22;;;;;;;10.67;6.50;;;;;;;;;;5014595;28;20426;-45
2023/05/30 05:49:48;;;;;;;9.90;5.60;;;;;;;;;;5014493;28;20425;-47
2023/05/30 05:52:14;;;;;;;17.00;6.40;;;;;;;;;;5014495;28;20422;-44
2023/05/30 05:54:40;;;;;;;14.63;6.50;;;;;;;;;;5014548;28;21010;-47
2023/05/30 05:57:06;;;;;;;12.30;6.80;;;;;;;;;;5021065;28;20400;-47
2023/05/30 05:59:32;;;;;;;16.47;7.20;;;;;;;;;;5011827;28;20475;-45
2023/05/30 06:01:58;;;;;;;16.70;7.67;;;;;;;;;;5017079;28;20424;-45
2023/05/30 06:04:25;;;;;;;13.50;6.43;;;;;;;;;;5010389;28;20992;-47
2023/05/30 06:06:51;;;;;;;13.33;6.00;;;;;;;;;;5014550;28;20463;-44
2023/05/30 06:09:17;;;;;;;11.87;6.77;;;;;;;;;;5013370;28;20470;-45
2023/05/30 06:11:43;;;;;;;13.73;6.40;;;;;;;;;;5012810;28;20456;-44
2023/05/30 06:14:09;;;;;;;18.67;6.70;;;;;;;;;;5012391;28;20468;-45
2023/05/30 06:16:35;;;;;;;15.73;7.43;;;;;;;;;;5013289;28;20935;-47
2023/05/30 06:19:01;;;;;;;10.63;6.53;;;;;;;;;;5014606;28;20428;-46
2023/05/30 06:21:27;;;;;;;9.80;5.97;;;;;;;;;;5012766;28;20437;-45
2023/05/30 06:23:53;;;;;;;8.80;6.23;;;;;;;;;;5012509;28;20440;-46
2023/05/30 06:26:19;;;;;;;20.57;6.80;;;;;;;;;;5012982;28;20427;-46
2023/05/30 06:28:49;;;;;;;11.03;5.90;;;;;;;;;;5012638;28;20503;-45
2023/05/30 06:31:15;;;;;;;19.50;6.43;;;;;;;;;;5013104;28;20425;-46
2023/05/30 06:33:41;;;;;;;16.67;7.50;;;;;;;;;;5010785;28;21026;-45
2023/05/30 06:36:07;;;;;;;12.30;5.77;;;;;;;;;;5010871;28;20539;-44
2023/05/30 06:38:33;;;;;;;12.93;6.50;;;;;;;;;;5012671;28;20428;-44
2023/05/30 06:41:00;;;;;;;12.50;6.73;;;;;;;;;;5011617;28;20438;-45
2023/05/30 06:43:27;;;;;;;9.27;6.97;;;;;;;;;;5011348;28;20496;-44
2023/05/30 06:45:53;;;;;;;12.13;6.33;;;;;;;;;;5011521;28;21024;-44
2023/05/30 06:48:19;;;;;;;15.47;6.57;;;;;;;;;;5011530;28;20513;-44
2023/05/30 06:50:45;;;;;;;11.73;7.17;;;;;;;;;;5011512;28;20435;-44
2023/05/30 06:53:11;;;;;;;17.80;7.87;;;;;;;;;;5010860;28;20495;-45
2023/05/30 06:55:37;;;;;;;7.30;6.10;;;;;;;;;;5016614;28;20958;-44
2023/05/30 06:58:08;;;;;;;19.77;7.10;;;;;;;;;;5010900;28;20793;-44
2023/05/30 07:00:34;;;;;;;12.73;6.60;;;;;;;;;;5010792;28;20429;-44
2023/05/30 07:03:01;;;;;;;8.17;7.03;;;;;;;;;;5009859;28;20456;-44
2023/05/30 07:05:27;;;;;;;15.53;7.43;;;;;;;;;;5010102;28;20475;-44
2023/05/30 07:07:53;;;;;;;9.13;6.30;;;;;;;;;;5010756;28;20918;-44
2023/05/30 07:10:19;;;;;;;16.20;6.53;;;;;;;;;;5014221;28;21524;-43
2023/05/30 07:12:45;;;;;;;13.23;7.17;;;;;;;;;;5011739;28;21153;-45
2023/05/30 07:15:12;;;;;;;14.63;6.80;;;;;;;;;;5013943;28;20488;-44
2023/05/30 07:17:38;;;;;;;12.50;6.80;;;;;;;;;;5011299;28;20418;-43
2023/05/30 07:20:08;;;;;;;20.13;7.00;;;;;;;;;;5014541;28;20453;-43
2023/05/30 07:22:34;;;;;;;8.30;5.97;;;;;;;;;;5015493;28;20410;-43
2023/05/30 07:25:00;;;;;;;15.40;7.30;;;;;;;;;;5015392;28;20451;-44
2023/05/30 07:27:26;;;;;;;18.63;7.10;;;;;;;;;;5014253;28;20472;-43
2023/05/30 07:29:52;;;;;;;14.90;6.57;;;;;;;;;;5013407;28;20928;-43
2023/05/30 07:32:18;;;;;;;10.37;6.73;;;;;;;;;;5012032;28;20556;-44
2023/05/30 07:34:44;;;;;;;13.97;7.50;;;;;;;;;;5014412;28;20466;-43
2023/05/30 07:37:10;;;;;;;15.57;6.33;;;;;;;;;;5014386;28;20422;-44
2023/05/30 07:39:36;;;;;;;12.60;6.90;;;;;;;;;;5013614;28;20422;-43
2023/05/30 07:42:02;;;;;;;11.83;6.03;;;;;;;;;;5015225;28;20405;-43
2023/05/30 07:44:28;;;;;;;17.57;7.20;;;;;;;;;;5015160;28;20432;-44
2023/05/30 07:46:55;;;;;;;13.23;8.53;;;;;;;;;;5015139;28;20442;-43
2023/05/30 07:49:21;;;;;;;13.10;7.87;;;;;;;;;;5014741;28;20415;-43
2023/05/30 07:51:48;;;;;;;12.10;6.80;;;;;;;;;;5015198;28;20414;-44
2023/05/30 07:54:15;;;;;;;12.67;6.37;;;;;;;;;;5015765;28;20464;-45
2023/05/30 07:56:41;;;;;;;16.00;6.93;;;;;;;;;;5018946;28;20438;-44
2023/05/30 07:59:07;;;;;;;13.07;7.13;;;;;;;;;;5014997;28;20458;-45
2023/05/30 08:01:33;;;;;;;17.20;6.60;;;;;;;;;;5014966;28;20442;-43
2023/05/30 08:03:59;;;;;;;12.60;6.50;;;;;;;;;;5012754;28;20497;-44
2023/05/30 08:06:25;;;;;;;16.43;7.50;;;;;;;;;;5014057;28;20426;-43
2023/05/30 08:08:51;;;;;;;9.00;7.03;;;;;;;;;;5014683;28;20414;-45
2023/05/30 08:11:17;;;;;;;13.87;6.80;;;;;;;;;;5014894;28;20406;-44
2023/05/30 08:13:43;;;;;;;13.87;7.07;;;;;;;;;;5015576;28;20418;-47
2023/05/30 08:16:10;;;;;;;7.20;6.20;;;;;;;;;;5016497;28;20592;-48
2023/05/30 08:18:36;;;;;;;19.23;6.70;;;;;;;;;;5016668;28;20403;-46
2023/05/30 08:21:02;;;;;;;9.83;5.60;;;;;;;;;;5016256;28;20390;-47
2023/05/30 08:23:28;;;;;;;15.47;6.07;;;;;;;;;;5016844;28;20492;-45
2023/05/30 08:25:56;;;;;;;9.77;5.87;;;;;;;;;;5016117;28;20907;-46
2023/05/30 08:28:22;;;;;;;10.20;5.30;;;;;;;;;;5016462;28;20499;-48
2023/05/30 08:30:48;;;;;;;11.97;6.40;;;;;;;;;;5016456;28;20409;-48
2023/05/30 08:33:15;;;;;;;9.50;6.30;;;;;;;;;;5016088;28;20519;-46
2023/05/30 08:35:41;;;;;;;7.33;5.80;;;;;;;;;;5014454;28;20478;-45
2023/05/30 08:38:07;;;;;;;10.07;5.43;;;;;;;;;;5015452;28;20424;-46
2023/05/30 08:40:35;;;;;;;9.50;6.10;;;;;;;;;;5016247;28;20476;-48
2023/05/30 08:43:01;;;;;;;11.60;5.70;;;;;;;;;;5015382;28;20945;-46
2023/05/30 08:45:28;;;;;;;8.80;5.80;;;;;;;;;;5015909;28;20482;-46
2023/05/30 08:47:55;;;;;;;12.40;6.10;;;;;;;;;;5016608;28;20395;-46
2023/05/30 08:50:21;;;;;;;14.10;6.63;;;;;;;;;;5016813;28;20410;-43
2023/05/30 08:52:51;;;;;;;11.37;5.63;;;;;;;;;;5013033;28;20436;-44
2023/05/30 08:55:20;;;;;;;14.73;6.50;;;;;;;;;;5017433;28;20457;-44
2023/05/30 08:57:51;;;;;;;8.80;6.80;;;;;;;;;;5017597;28;20421;-44
2023/05/30 09:00:18;;;;;;;10.70;6.57;;;;;;;;;;5014248;28;20421;-45
2023/05/30 09:02:44;;;;;;;11.00;5.77;;;;;;;;;;5014384;28;20532;-44
2023/05/30 09:05:15;;;;;;;11.33;5.50;;;;;;;;;;5011030;28;20922;-45
2023/05/30 09:07:42;;;;;;;12.47;6.27;;;;;;;;;;5010976;28;20929;-43
2023/05/30 09:10:08;;;;;;;11.27;6.17;;;;;;;;;;5013218;28;20791;-45
2023/05/30 09:12:34;;;;;;;16.90;7.17;;;;;;;;;;5012094;28;20457;-45
2023/05/30 09:15:00;;;;;;;13.70;6.67;;;;;;;;;;5012252;28;20457;-44
2023/05/30 09:17:26;;;;;;;16.53;6.33;;;;;;;;;;5012991;28;20414;-45
2023/05/30 09:19:53;;;;;;;14.90;6.53;;;;;;;;;;5013516;28;20415;-43
2023/05/30 09:22:20;;;;;;;13.53;6.70;;;;;;;;;;5012461;28;20486;-43
2023/05/30 09:25:03;;;;;;;9.20;6.43;;;;;;;;;;5013631;28;20451;-44
2023/05/30 09:27:30;;;;;;;11.43;6.13;;;;;;;;;;5013775;28;20399;-44
2023/05/30 09:29:56;;;;;;;11.77;6.00;;;;;;;;;;5013709;28;20940;-43
2023/05/30 09:32:29;;;;;;;12.57;6.77;;;;;;;;;;5012733;28;20819;-43
2023/05/30 09:34:56;;;;;;;9.43;5.60;;;;;;;;;;5012366;28;20597;-43
2023/05/30 09:37:23;;;;;;;11.27;6.20;;;;;;;;;;5013353;28;20411;-44
2023/05/30 09:40:09;;;;;;;11.60;5.63;;;;;;;;;;5013339;28;20426;-44
2023/05/30 09:42:45;;;;;;;18.93;6.20;;;;;;;;;;5013020;28;20495;-43
2023/05/30 09:45:15;;;;;;;9.70;5.70;;;;;;;;;;5008476;28;20545;-44
2023/05/30 09:47:45;;;;;;;11.40;6.10;;;;;;;;;;5012989;28;20415;-44
2023/05/30 09:50:12;;;;;;;8.67;5.60;;;;;;;;;;5005294;28;20418;-44
2023/05/30 09:52:38;;;;;;;7.73;5.37;;;;;;;;;;5012922;28;20411;-44
2023/05/30 09:55:06;;;;;;;12.60;5.10;;;;;;;;;;5014389;28;20528;-43
2023/05/30 09:57:33;;;;;;;8.30;5.00;;;;;;;;;;5014196;28;20450;-44
2023/05/30 10:00:00;;;;;;;9.70;6.30;;;;;;;;;;5013092;28;20502;-44
2023/05/30 10:02:26;;;;;;;11.97;6.10;;;;;;;;;;5011311;28;20407;-44
2023/05/30 10:04:53;;;;;;;12.07;6.07;;;;;;;;;;5012838;28;20895;-44
2023/05/30 10:07:20;;;;;;;9.77;5.57;;;;;;;;;;5013046;28;20414;-44
2023/05/30 10:09:49;;;;;;;13.73;5.00;;;;;;;;;;5012971;28;20798;-44
2023/05/30 10:12:15;;;;;;;9.97;6.50;;;;;;;;;;5012850;28;20406;-43
2023/05/30 10:14:41;;;;;;;12.33;6.43;;;;;;;;;;5011748;28;20518;-44
2023/05/30 10:17:09;;;;;;;8.67;5.43;;;;;;;;;;5012874;28;20401;-45
2023/05/30 10:19:47;;;;;;;11.37;5.73;;;;;;;;;;5012879;28;20922;-45
2023/05/30 10:22:13;;;;;;;8.80;5.90;;;;;;;;;;5012612;28;20411;-45
2023/05/30 10:24:40;;;;;;;8.97;6.70;;;;;;;;;;5012833;28;20431;-45
2023/05/30 10:27:06;;;;;;;12.60;6.27;;;;;;;;;;5011558;28;20424;-44
2023/05/30 10:29:35;;;;;;;15.67;7.97;;;;;;;;;;5011414;28;20431;-44
2023/05/30 10:32:01;;;;;;;10.83;6.90;;;;;;;;;;5012734;28;20443;-44
2023/05/30 10:34:37;;;;;;;14.80;7.00;;;;;;;;;;5012333;28;20455;-45
2023/05/30 10:37:03;;;;;;;10.73;6.87;;;;;;;;;;5012680;28;20415;-44
2023/05/30 10:39:48;;;;;;;9.10;6.13;;;;;;;;;;5012500;28;20405;-44
2023/05/30 10:42:19;;;;;;;13.50;7.10;;;;;;;;;;5012019;28;20441;-45
2023/05/30 10:44:59;;;;;;;17.63;7.07;;;;;;;;;;4996105;28;20765;-44
2023/05/30 10:47:40;;;;;;;11.10;6.47;;;;;;;;;;5006876;28;20735;-44
2023/05/30 10:50:10;;;;;;;14.70;6.40;;;;;;;;;;5012490;28;20758;-44
2023/05/30 10:52:35;;;;;;;12.17;6.00;;;;;;;;;;5012114;28;20415;-44
2023/05/30 10:55:07;;;;;;;11.10;6.27;;;;;;;;;;5013276;28;20916;-45
2023/05/30 10:57:33;;;;;;;12.63;5.50;;;;;;;;;;5026434;28;20477;-44
2023/05/30 11:00:16;;;;;;;11.13;5.50;;;;;;;;;;5010667;28;20979;-45
2023/05/30 11:02:43;;;;;;;10.57;5.53;;;;;;;;;;5011479;28;20446;-46
2023/05/30 11:05:11;;;;;;;6.40;5.00;;;;;;;;;;5012273;28;20490;-43
2023/05/30 11:07:38;;;;;;;10.17;6.40;;;;;;;;;;5012129;28;20787;-44
2023/05/30 11:10:04;;;;;;;9.87;5.40;;;;;;;;;;5011915;28;20510;-43
2023/05/30 11:12:30;;;;;;;13.23;5.90;;;;;;;;;;5012145;28;20407;-44
2023/05/30 11:14:58;;;;;;;10.57;5.93;;;;;;;;;;5011945;28;20466;-44
2023/05/30 11:17:37;;;;;;;8.00;6.10;;;;;;;;;;5011820;28;20887;-44
2023/05/30 11:20:07;;;;;;;13.87;6.00;;;;;;;;;;5011896;28;20410;-43
2023/05/30 11:22:33;;;;;;;9.83;5.77;;;;;;;;;;5010969;28;20501;-43
2023/05/30 11:25:25;;;;;;;8.80;4.73;;;;;;;;;;5011070;28;20437;-46
2023/05/30 11:28:01;;;;;;;10.37;5.40;;;;;;;;;;5011816;28;20410;-43
2023/05/30 11:30:27;;;;;;;7.70;4.80;;;;;;;;;;5008952;28;20997;-44
2023/05/30 11:32:56;;;;;;;7.67;4.83;;;;;;;;;;5011682;28;20439;-45
2023/05/30 11:35:22;;;;;;;7.17;4.23;;;;;;;;;;5012304;28;20977;-44
2023/05/30 11:37:48;;;;;;;8.70;5.00;;;;;;;;;;5012033;28;20474;-45
2023/05/30 11:40:21;;;;;;;9.60;5.03;;;;;;;;;;5011672;28;20411;-44
2023/05/30 11:42:51;;;;;;;5.93;4.60;;;;;;;;;;5002452;28;21014;-44
2023/05/30 11:45:17;;;;;;;8.57;5.10;;;;;;;;;;4998709;28;20427;-44
2023/05/30 11:47:44;;;;;;;9.73;5.73;;;;;;;;;;5008788;28;20484;-44
2023/05/30 11:50:11;;;;;;;148.33;12.00;;;;;;;;;;5005395;28;20419;-44
2023/05/30 11:52:38;;;;;;;9.43;4.60;;;;;;;;;;5010033;28;20426;-45
2023/05/30 11:55:04;;;;;;;12.10;5.97;;;;;;;;;;5013517;28;20502;-44
2023/05/30 11:57:31;;;;;;;12.80;5.43;;;;;;;;;;5018228;28;20419;-44
2023/05/30 11:59:57;;;;;;;13.83;4.70;;;;;;;;;;5015044;28;20918;-44
2023/05/30 12:02:29;;;;;;;8.20;5.57;;;;;;;;;;5014648;28;20415;-44
2023/05/30 12:05:00;;;;;;;4.80;3.83;;;;;;;;;;5014961;28;20426;-44
2023/05/30 12:07:26;;;;;;;62.57;7.13;;;;;;;;;;5015119;28;20417;-44
2023/05/30 12:09:52;;;;;;;6.17;5.20;;;;;;;;;;5014713;28;20411;-46
2023/05/30 12:12:18;;;;;;;10.07;4.70;;;;;;;;;;5007895;28;21000;-44
2023/05/30 12:14:45;;;;;;;7.70;5.03;;;;;;;;;;5014511;28;20459;-43
2023/05/30 12:17:14;;;;;;;7.30;4.50;;;;;;;;;;5014474;28;20427;-44
2023/05/30 12:19:45;;;;;;;11.37;4.97;;;;;;;;;;5014068;28;20477;-46
2023/05/30 12:22:11;;;;;;;7.50;4.30;;;;;;;;;;5005083;28;20423;-44
2023/05/30 12:24:37;;;;;;;13.80;4.47;;;;;;;;;;5013944;28;20422;-44
2023/05/30 12:27:05;;;;;;;16.97;6.10;;;;;;;;;;5014358;28;20419;-43
2023/05/30 12:29:32;;;;;;;7.23;5.17;;;;;;;;;;5013140;28;20835;-44
2023/05/30 12:31:58;;;;;;;12.80;5.33;;;;;;;;;;5013848;28;20439;-43
2023/05/30 12:34:25;;;;;;;12.77;5.40;;;;;;;;;;5013992;28;20459;-44
2023/05/30 12:36:55;;;;;;;6.57;4.73;;;;;;;;;;5014446;28;20449;-43
2023/05/30 12:39:21;;;;;;;7.97;4.97;;;;;;;;;;5014386;28;20403;-44
2023/05/30 12:41:47;;;;;;;6.57;4.50;;;;;;;;;;5014021;28;20407;-45
2023/05/30 12:44:17;;;;;;;6.80;4.77;;;;;;;;;;5013867;28;20787;-43
2023/05/30 12:46:44;;;;;;;9.10;5.23;;;;;;;;;;5014019;28;20427;-43
2023/05/30 12:49:10;;;;;;;7.53;5.23;;;;;;;;;;5005898;28;20399;-43
2023/05/30 12:51:37;;;;;;;9.93;4.87;;;;;;;;;;5014228;28;20403;-43
2023/05/30 12:54:03;;;;;;;10.20;5.13;;;;;;;;;;5013619;28;20942;-46
2023/05/30 12:56:30;;;;;;;6.27;4.03;;;;;;;;;;5020795;28;20419;-44
2023/05/30 12:58:56;;;;;;;10.53;4.93;;;;;;;;;;5013043;28;20427;-45
2023/05/30 13:01:22;;;;;;;6.57;4.10;;;;;;;;;;5013239;28;20433;-45
2023/05/30 13:03:48;;;;;;;6.17;3.70;;;;;;;;;;5013384;28;20454;-45
2023/05/30 13:06:14;;;;;;;5.67;3.53;;;;;;;;;;5012976;28;20415;-44
2023/05/30 13:08:40;;;;;;;7.87;4.70;;;;;;;;;;5013249;28;20403;-45
2023/05/30 13:11:06;;;;;;;6.80;4.80;;;;;;;;;;5013508;28;20903;-45
2023/05/30 13:13:32;;;;;;;6.33;4.33;;;;;;;;;;5013252;28;20434;-46
2023/05/30 13:15:58;;;;;;;13.90;4.63;;;;;;;;;;5013357;28;20569;-44
2023/05/30 13:18:24;;;;;;;12.90;4.27;;;;;;;;;;5013519;28;20403;-44
2023/05/30 13:20:50;;;;;;;5.50;3.67;;;;;;;;;;5013315;28;20419;-44
2023/05/30 13:23:16;;;;;;;7.20;4.43;;;;;;;;;;5013165;28;20442;-44
2023/05/30 13:25:42;;;;;;;7.47;3.77;;;;;;;;;;5013313;28;20914;-45
2023/05/30 13:28:08;;;;;;;6.93;4.80;;;;;;;;;;5011977;28;20790;-45
2023/05/30 13:30:34;;;;;;;13.10;4.30;;;;;;;;;;5012306;28;20407;-45
2023/05/30 13:33:00;;;;;;;5.63;4.23;;;;;;;;;;5012784;28;20450;-45
2023/05/30 13:35:26;;;;;;;6.70;3.90;;;;;;;;;;5013505;28;20490;-46
2023/05/30 13:37:53;;;;;;;6.20;3.80;;;;;;;;;;5012931;28;20183;-45
2023/05/30 13:40:18;;;;;;;8.90;4.23;;;;;;;;;;5013056;28;20843;-44
2023/05/30 13:42:45;;;;;;;8.30;4.53;;;;;;;;;;5012995;28;20530;-45
2023/05/30 13:45:11;;;;;;;7.83;3.83;;;;;;;;;;5005535;28;20788;-45
2023/05/30 13:47:37;;;;;;;6.90;3.67;;;;;;;;;;5013611;28;20418;-45
2023/05/30 13:50:05;;;;;;;9.00;3.67;;;;;;;;;;5012959;28;20454;-45
2023/05/30 13:52:31;;;;;;;5.63;3.10;;;;;;;;;;5012683;28;20548;-45
2023/05/30 13:54:57;;;;;;;8.23;4.20;;;;;;;;;;5013154;28;20463;-45
2023/05/30 13:57:23;;;;;;;5.53;3.30;;;;;;;;;;5018404;28;20423;-45
2023/05/30 13:59:50;;;;;;;6.10;3.07;;;;;;;;;;5012282;28;20529;-45
2023/05/30 14:02:16;;;;;;;5.73;3.50;;;;;;;;;;5012843;28;20176;-46
2023/05/30 14:04:42;;;;;;;6.40;3.20;;;;;;;;;;5012889;28;20489;-45
2023/05/30 14:07:08;;;;;;;3.83;3.40;;;;;;;;;;5012607;28;20410;-46
2023/05/30 14:09:34;;;;;;;6.80;3.50;;;;;;;;;;5012802;28;20411;-45
2023/05/30 14:12:02;;;;;;;6.20;3.20;;;;;;;;;;5012745;28;20230;-46
2023/05/30 14:14:29;;;;;;;9.17;3.60;;;;;;;;;;5012538;28;20207;-45
2023/05/30 14:16:56;;;;;;;6.27;4.07;;;;;;;;;;5012792;28;20763;-45
2023/05/30 14:19:28;;;;;;;6.07;3.30;;;;;;;;;;5012297;28;20422;-44
2023/05/30 14:21:54;;;;;;;6.50;3.30;;;;;;;;;;5012480;28;20465;-45
2023/05/30 14:24:22;;;;;;;5.30;3.40;;;;;;;;;;5012402;28;20445;-44
2023/05/30 14:26:48;;;;;;;4.10;3.13;;;;;;;;;;5012608;28;20399;-46
2023/05/30 14:29:14;;;;;;;10.10;3.70;;;;;;;;;;5010834;28;20937;-45
2023/05/30 14:31:40;;;;;;;4.67;3.20;;;;;;;;;;5012500;28;20415;-45
2023/05/30 14:34:07;;;;;;;9.63;5.30;;;;;;;;;;5012096;28;20435;-45
2023/05/30 14:36:33;;;;;;;5.30;2.83;;;;;;;;;;5012303;28;20407;-45